createdAt,value
2018-04-09T00:00:02.637Z,75.80
2018-04-09T00:02:33.300Z,75.90
2018-04-09T00:05:04.842Z,75.80
2018-04-09T00:07:36.853Z,76.00
2018-04-09T00:10:08.921Z,76.70
2018-04-09T00:12:39.082Z,76.80
2018-04-09T00:15:09.252Z,76.90
2018-04-09T00:17:39.446Z,77.10
2018-04-09T00:20:11.379Z,76.80
2018-04-09T00:22:41.692Z,76.80
2018-04-09T00:25:12.790Z,77.10
2018-04-09T00:27:42.462Z,77.00
2018-04-09T00:30:12.211Z,77.10
2018-04-09T00:32:42.192Z,77.00
2018-04-09T00:35:11.990Z,76.90
2018-04-09T00:37:43.037Z,77.30
2018-04-09T00:40:14.851Z,77.20
2018-04-09T00:42:46.612Z,77.90
2018-04-09T00:45:18.181Z,78.20
2018-04-09T00:47:49.818Z,78.40
2018-04-09T00:50:20.460Z,79.50
2018-04-09T00:52:52.093Z,79.00
2018-04-09T00:55:23.642Z,79.30
2018-04-09T00:57:53.488Z,79.40
2018-04-09T01:00:24.990Z,79.50
2018-04-09T01:02:56.677Z,79.50
2018-04-09T01:05:26.352Z,79.70
2018-04-09T01:07:56.200Z,79.40
2018-04-09T01:10:28.174Z,79.40
2018-04-09T01:12:57.879Z,79.50
2018-04-09T01:15:27.606Z,79.90
2018-04-09T01:17:59.936Z,81.90
2018-04-09T01:20:30.129Z,81.20
2018-04-09T01:23:01.058Z,81.80
2018-04-09T01:25:32.799Z,82.50
2018-04-09T01:28:04.226Z,82.90
2018-04-09T01:30:34.155Z,82.80
2018-04-09T01:33:04.758Z,84.00
2018-04-09T01:35:34.462Z,84.60
2018-04-09T01:38:04.029Z,85.00
2018-04-09T01:40:33.727Z,85.40
2018-04-09T01:43:04.699Z,85.20
2018-04-09T01:45:35.056Z,85.20
2018-04-09T01:48:06.678Z,85.60
2018-04-09T01:50:38.372Z,85.40
2018-04-09T01:53:09.326Z,85.00
2018-04-09T01:55:38.963Z,84.60
2018-04-09T01:58:08.573Z,84.20
2018-04-09T02:00:40.300Z,84.10
2018-04-09T02:03:11.860Z,83.90
2018-04-09T02:05:44.127Z,83.80
2018-04-09T02:08:15.781Z,84.00
2018-04-09T02:10:46.092Z,84.20
2018-04-09T02:13:15.701Z,84.20
2018-04-09T02:15:45.221Z,84.30
2018-04-09T02:18:16.177Z,84.80
2018-04-09T02:20:45.844Z,84.70
2018-04-09T02:23:15.923Z,84.80
2018-04-09T02:25:46.890Z,85.10
2018-04-09T02:28:17.757Z,85.60
2018-04-09T02:30:48.682Z,86.50
2018-04-09T02:33:19.561Z,86.50
2018-04-09T02:35:49.687Z,86.50
2018-04-09T02:38:19.534Z,86.90
2018-04-09T02:40:50.719Z,87.20
2018-04-09T02:43:23.499Z,87.70
2018-04-09T02:45:53.912Z,88.10
2018-04-09T02:48:25.560Z,88.10
2018-04-09T02:50:55.172Z,88.00
2018-04-09T02:53:24.819Z,88.30
2018-04-09T02:55:55.929Z,88.50
2018-04-09T02:58:26.880Z,88.70
2018-04-09T03:00:57.306Z,89.60
2018-04-09T03:03:29.989Z,90.00
2018-04-09T03:06:02.644Z,90.10
2018-04-09T03:08:32.664Z,90.10
2018-04-09T03:11:05.325Z,90.50
2018-04-09T03:13:37.294Z,90.20
2018-04-09T03:16:06.943Z,90.40
2018-04-09T03:18:36.640Z,90.50
2018-04-09T03:21:07.411Z,90.80
2018-04-09T03:23:38.048Z,90.80
2018-04-09T03:26:09.558Z,91.00
2018-04-09T03:28:40.103Z,91.10
2018-04-09T03:31:11.692Z,91.00
2018-04-09T03:33:41.441Z,91.10
2018-04-09T03:36:14.042Z,91.40
2018-04-09T03:38:43.745Z,91.40
2018-04-09T03:41:16.443Z,91.70
2018-04-09T03:43:46.733Z,91.70
2018-04-09T03:46:18.308Z,91.90
2018-04-09T03:48:50.040Z,91.90
2018-04-09T03:51:19.727Z,91.80
2018-04-09T03:53:50.005Z,91.90
2018-04-09T03:56:20.429Z,92.00
2018-04-09T03:58:50.622Z,92.00
2018-04-09T04:01:21.495Z,92.00
2018-04-09T04:03:53.229Z,92.00
2018-04-09T04:06:23.783Z,92.20
2018-04-09T04:08:54.447Z,92.20
2018-04-09T04:11:25.216Z,92.10
2018-04-09T04:13:56.730Z,92.10
2018-04-09T04:16:38.076Z,92.10
2018-04-09T04:19:19.122Z,92.10
2018-04-09T04:21:49.962Z,92.20
2018-04-09T04:24:22.037Z,92.60
2018-04-09T04:26:52.463Z,92.70
2018-04-09T04:29:25.066Z,92.80
2018-04-09T04:31:56.832Z,92.80
2018-04-09T04:34:27.495Z,92.90
2018-04-09T04:36:59.426Z,93.30
2018-04-09T04:39:30.252Z,93.10
2018-04-09T04:42:01.724Z,93.20
2018-04-09T04:44:31.758Z,93.30
2018-04-09T04:47:02.674Z,93.50
2018-04-09T04:49:33.302Z,93.60
2018-04-09T04:52:04.716Z,93.60
2018-04-09T04:54:35.692Z,93.80
2018-04-09T04:57:06.792Z,93.80
2018-04-09T04:59:39.334Z,94.20
2018-04-09T05:02:09.109Z,94.20
2018-04-09T05:04:38.784Z,94.30
2018-04-09T05:07:09.123Z,94.40
2018-04-09T05:09:40.624Z,94.60
2018-04-09T05:12:12.312Z,94.60
2018-04-09T05:14:44.645Z,94.80
2018-04-09T05:17:16.569Z,94.80
2018-04-09T05:19:48.328Z,94.90
2018-04-09T05:22:18.896Z,95.10
2018-04-09T05:24:50.070Z,95.10
2018-04-09T05:27:21.001Z,95.30
2018-04-09T05:29:53.077Z,95.80
2018-04-09T05:32:23.875Z,95.80
2018-04-09T05:34:55.257Z,96.10
2018-04-09T05:37:26.113Z,96.10
2018-04-09T05:39:57.442Z,96.20
2018-04-09T05:42:28.742Z,96.70
2018-04-09T05:44:59.073Z,96.70
2018-04-09T05:47:30.459Z,96.70
2018-04-09T05:50:02.406Z,96.90
2018-04-09T05:52:33.148Z,96.90
2018-04-09T05:55:03.987Z,96.70
2018-04-09T05:57:35.876Z,96.20
2018-04-09T06:00:06.770Z,96.20
2018-04-09T06:02:37.532Z,96.00
2018-04-09T06:05:08.741Z,96.00
2018-04-09T06:07:39.892Z,96.00
2018-04-09T06:10:11.755Z,96.60
2018-04-09T06:12:43.810Z,96.80
2018-04-09T06:15:21.043Z,96.80
2018-04-09T06:17:52.522Z,96.90
2018-04-09T06:20:24.217Z,97.10
2018-04-09T06:22:56.011Z,97.20
2018-04-09T06:25:26.926Z,97.50
2018-04-09T06:27:57.148Z,97.60
2018-04-09T06:30:29.195Z,98.30
2018-04-09T06:33:00.696Z,98.30
2018-04-09T06:35:30.367Z,98.40
2018-04-09T06:38:02.098Z,98.50
2018-04-09T06:40:33.706Z,98.50
2018-04-09T06:43:06.202Z,98.70
2018-04-09T06:45:36.993Z,99.00
2018-04-09T06:48:08.738Z,98.50
2018-04-09T06:50:38.515Z,98.30
2018-04-09T06:53:09.326Z,98.20
2018-04-09T06:55:48.269Z,98.20
2018-04-09T06:58:19.579Z,98.10
2018-04-09T07:00:50.300Z,98.00
2018-04-09T07:03:22.001Z,98.20
2018-04-09T07:05:53.207Z,98.00
2018-04-09T07:08:24.072Z,98.10
2018-04-09T07:10:55.222Z,98.30
2018-04-09T07:13:25.990Z,98.20
2018-04-09T07:15:57.127Z,98.30
2018-04-09T07:18:27.670Z,98.40
2018-04-09T07:20:59.000Z,98.30
2018-04-09T07:23:29.888Z,98.20
2018-04-09T07:26:00.908Z,98.10
2018-04-09T07:28:38.724Z,97.90
2018-04-09T07:31:09.817Z,97.90
2018-04-09T07:33:40.899Z,98.00
2018-04-09T07:36:12.106Z,97.90
2018-04-09T07:38:42.886Z,97.60
2018-04-09T07:41:18.079Z,97.50
2018-04-09T07:43:49.307Z,97.30
2018-04-09T07:46:20.312Z,97.40
2018-04-09T07:48:51.394Z,97.40
2018-04-09T07:51:22.888Z,96.70
2018-04-09T07:53:54.771Z,96.10
2018-04-09T07:56:25.863Z,96.10
2018-04-09T07:58:56.784Z,95.50
2018-04-09T08:01:28.618Z,95.50
2018-04-09T08:03:59.527Z,95.60
2018-04-09T08:06:31.426Z,94.90
2018-04-09T08:09:02.385Z,94.90
2018-04-09T08:11:33.085Z,94.80
2018-04-09T08:14:04.083Z,94.80
2018-04-09T08:16:35.441Z,94.20
2018-04-09T08:19:06.374Z,94.40
2018-04-09T08:21:37.456Z,94.30
2018-04-09T08:24:07.741Z,94.10
2018-04-09T08:26:38.763Z,94.00
2018-04-09T08:29:09.486Z,93.90
2018-04-09T08:31:39.254Z,93.70
2018-04-09T08:34:09.438Z,94.00
2018-04-09T08:36:38.997Z,93.70
2018-04-09T08:39:11.063Z,93.30
2018-04-09T08:41:43.110Z,93.30
2018-04-09T08:44:18.980Z,93.40
2018-04-09T08:46:49.816Z,93.30
2018-04-09T08:49:23.198Z,93.50
2018-04-09T08:51:55.156Z,93.10
2018-04-09T08:54:27.182Z,92.80
2018-04-09T08:56:58.201Z,92.80
2018-04-09T08:59:29.730Z,92.00
2018-04-09T09:02:00.146Z,92.00
2018-04-09T09:04:31.010Z,91.60
2018-04-09T09:07:01.789Z,91.30
2018-04-09T09:09:32.446Z,90.70
2018-04-09T09:12:07.437Z,90.50
2018-04-09T09:14:38.727Z,90.40
2018-04-09T09:17:10.072Z,90.50
2018-04-09T09:19:41.712Z,90.60
2018-04-09T09:22:11.818Z,90.60
2018-04-09T09:24:42.971Z,90.80
2018-04-09T09:27:15.067Z,90.70
2018-04-09T09:29:46.441Z,90.60
2018-04-09T09:32:25.678Z,90.70
2018-04-09T09:34:57.180Z,90.80
2018-04-09T09:37:27.713Z,90.90
2018-04-09T09:40:02.102Z,91.00
2018-04-09T09:42:33.035Z,90.80
2018-04-09T09:45:04.369Z,90.70
2018-04-09T09:47:35.329Z,90.50
2018-04-09T09:50:06.600Z,90.00
2018-04-09T09:52:36.706Z,89.90
2018-04-09T09:55:08.528Z,88.10
2018-04-09T09:57:40.064Z,86.40
2018-04-09T10:00:12.153Z,84.00
2018-04-09T10:02:49.447Z,84.00
2018-04-09T10:05:19.916Z,83.00
2018-04-09T10:07:50.071Z,83.40
2018-04-09T10:10:21.821Z,81.90
2018-04-09T10:12:52.007Z,81.90
2018-04-09T10:15:24.594Z,78.20
2018-04-09T10:17:54.333Z,78.20
2018-04-09T10:20:26.046Z,77.60
2018-04-09T10:22:56.841Z,77.60
2018-04-09T10:25:28.684Z,78.00
2018-04-09T10:28:00.534Z,79.90
2018-04-09T10:30:33.292Z,80.60
2018-04-09T10:33:03.307Z,80.50
2018-04-09T10:35:35.135Z,80.90
2018-04-09T10:38:06.766Z,81.10
2018-04-09T10:40:38.818Z,81.80
2018-04-09T10:43:09.337Z,83.30
2018-04-09T10:45:40.333Z,83.20
2018-04-09T10:48:12.387Z,83.20
2018-04-09T10:50:42.045Z,83.70
2018-04-09T10:53:12.693Z,83.50
2018-04-09T10:55:43.065Z,83.60
2018-04-09T10:58:14.951Z,83.70
2018-04-09T11:00:46.125Z,84.10
2018-04-09T11:03:16.862Z,83.80
2018-04-09T11:05:48.627Z,84.80
2018-04-09T11:08:20.870Z,83.50
2018-04-09T11:10:54.065Z,82.30
2018-04-09T11:13:24.902Z,81.60
2018-04-09T11:15:55.524Z,80.90
2018-04-09T11:18:27.023Z,81.00
2018-04-09T11:20:58.118Z,80.80
2018-04-09T11:23:29.000Z,80.10
2018-04-09T11:26:00.205Z,79.90
2018-04-09T11:28:31.735Z,80.50
2018-04-09T11:33:43.756Z,81.20
2018-04-09T11:36:14.456Z,81.20
2018-04-09T11:38:45.887Z,81.40
2018-04-09T11:41:17.413Z,80.40
2018-04-09T11:43:48.877Z,79.00
2018-04-09T11:46:20.010Z,78.30
2018-04-09T11:48:51.773Z,78.10
2018-04-09T11:51:23.367Z,77.70
2018-04-09T11:53:54.587Z,78.10
2018-04-09T11:56:25.819Z,79.30
2018-04-09T11:58:56.883Z,79.60
2018-04-09T12:01:28.951Z,81.80
2018-04-09T12:04:01.170Z,81.70
2018-04-09T12:06:33.179Z,81.30
2018-04-09T12:09:04.200Z,81.30
2018-04-09T12:11:35.162Z,81.40
2018-04-09T12:14:06.514Z,82.00
2018-04-09T12:16:41.207Z,82.00
2018-04-09T12:19:12.006Z,81.80
2018-04-09T12:21:41.820Z,81.80
2018-04-09T12:24:12.707Z,81.70
2018-04-09T12:26:45.409Z,81.50
2018-04-09T12:29:15.631Z,81.50
2018-04-09T12:31:46.414Z,81.00
2018-04-09T12:34:19.536Z,80.70
2018-04-09T12:36:51.549Z,80.70
2018-04-09T12:39:23.358Z,80.30
2018-04-09T12:41:55.246Z,81.50
2018-04-09T12:44:27.024Z,80.50
2018-04-09T12:46:58.013Z,80.90
2018-04-09T12:49:28.420Z,81.20
2018-04-09T12:52:00.259Z,81.50
2018-04-09T12:54:32.218Z,81.50
2018-04-09T12:57:04.572Z,82.10
2018-04-09T12:59:36.359Z,82.10
2018-04-09T13:02:06.547Z,82.50
2018-04-09T13:04:36.453Z,82.50
2018-04-09T13:07:06.724Z,83.00
2018-04-09T13:09:38.393Z,83.30
2018-04-09T13:12:10.449Z,83.30
2018-04-09T13:14:41.814Z,83.50
2018-04-09T13:17:12.051Z,83.50
2018-04-09T13:19:42.508Z,83.60
2018-04-09T13:22:12.775Z,83.80
2018-04-09T13:24:45.034Z,84.20
2018-04-09T13:27:16.359Z,84.10
2018-04-09T13:29:47.158Z,84.10
2018-04-09T13:32:19.157Z,84.50
2018-04-09T13:34:52.428Z,84.20
2018-04-09T13:37:23.766Z,84.40
2018-04-09T13:39:57.068Z,84.40
2018-04-09T13:42:27.624Z,84.60
2018-04-09T13:44:57.935Z,84.60
2018-04-09T13:47:27.869Z,84.70
2018-04-09T13:49:58.726Z,84.30
2018-04-09T13:52:28.986Z,85.00
2018-04-09T13:55:00.062Z,84.10
2018-04-09T13:57:30.051Z,84.00
2018-04-09T13:59:59.946Z,84.30
2018-04-09T14:02:29.775Z,84.20
2018-04-09T14:05:00.942Z,85.10
2018-04-09T14:07:31.508Z,84.40
2018-04-09T14:10:02.715Z,84.20
2018-04-09T14:12:32.682Z,84.30
2018-04-09T14:15:02.953Z,84.70
2018-04-09T14:17:33.192Z,84.30
2018-04-09T14:20:06.038Z,84.30
2018-04-09T14:22:36.678Z,84.30
2018-04-09T14:25:06.532Z,84.60
2018-04-09T14:27:37.249Z,84.80
2018-04-09T14:30:09.357Z,85.50
2018-04-09T14:32:40.141Z,84.70
2018-04-09T14:35:12.452Z,84.50
2018-04-09T14:37:45.534Z,84.20
2018-04-09T14:40:16.570Z,84.30
2018-04-09T14:42:48.041Z,84.90
2018-04-09T14:45:17.941Z,84.90
2018-04-09T14:47:47.994Z,85.20
2018-04-09T14:50:18.742Z,85.40
2018-04-09T14:52:49.182Z,85.60
2018-04-09T14:55:18.878Z,85.60
2018-04-09T14:57:49.088Z,85.80
2018-04-09T15:00:21.909Z,86.10
2018-04-09T15:02:52.952Z,86.70
2018-04-09T15:05:23.485Z,86.70
2018-04-09T15:07:54.372Z,86.80
2018-04-09T15:10:24.243Z,86.70
2018-04-09T15:12:55.647Z,86.50
2018-04-09T15:15:25.893Z,86.50
2018-04-09T15:17:57.400Z,86.40
2018-04-09T15:20:27.968Z,86.60
2018-04-09T15:22:58.241Z,86.60
2018-04-09T15:25:28.034Z,87.30
2018-04-09T15:27:59.156Z,86.00
2018-04-09T15:30:30.053Z,85.90
2018-04-09T15:33:00.564Z,86.40
2018-04-09T15:35:31.155Z,85.10
2018-04-09T15:38:02.047Z,84.60
2018-04-09T15:40:32.185Z,84.60
2018-04-09T15:43:04.478Z,85.40
2018-04-09T15:45:35.088Z,85.10
2018-04-09T15:48:04.955Z,86.10
2018-04-09T15:50:34.765Z,86.50
2018-04-09T15:53:07.216Z,86.50
2018-04-09T15:55:38.532Z,84.80
2018-04-09T15:58:09.938Z,84.80
2018-04-09T16:00:40.220Z,85.50
2018-04-09T16:03:12.884Z,86.50
2018-04-09T16:05:43.701Z,84.60
2018-04-09T16:08:14.054Z,83.50
2018-04-09T16:10:44.536Z,83.20
2018-04-09T16:13:15.168Z,83.10
2018-04-09T16:15:46.825Z,83.10
2018-04-09T16:18:17.034Z,83.30
2018-04-09T16:20:47.464Z,83.50
2018-04-09T16:23:20.540Z,84.80
2018-04-09T16:25:54.170Z,87.20
2018-04-09T16:28:25.473Z,87.00
2018-04-09T16:30:56.343Z,87.20
2018-04-09T16:33:27.968Z,87.20
2018-04-09T16:35:59.060Z,87.20
2018-04-09T16:38:31.020Z,87.30
2018-04-09T16:41:01.138Z,87.20
2018-04-09T16:43:31.988Z,87.30
2018-04-09T16:46:02.416Z,87.30
2018-04-09T16:48:35.142Z,87.40
2018-04-09T16:51:06.922Z,88.00
2018-04-09T16:53:39.435Z,88.00
2018-04-09T16:56:10.174Z,88.30
2018-04-09T16:58:40.318Z,88.80
2018-04-09T17:01:11.063Z,89.40
2018-04-09T17:03:42.490Z,89.70
2018-04-09T17:06:12.949Z,89.70
2018-04-09T17:08:43.027Z,90.20
2018-04-09T17:11:15.743Z,90.60
2018-04-09T17:13:47.164Z,91.00
2018-04-09T17:16:17.621Z,91.00
2018-04-09T17:18:48.288Z,91.10
2018-04-09T17:21:18.930Z,91.20
2018-04-09T17:23:49.064Z,91.40
2018-04-09T17:26:22.048Z,91.50
2018-04-09T17:28:52.874Z,91.70
2018-04-09T17:31:23.629Z,91.70
2018-04-09T17:33:53.634Z,91.90
2018-04-09T17:36:23.861Z,92.00
2018-04-09T17:38:53.996Z,92.00
2018-04-09T17:41:26.093Z,92.20
2018-04-09T17:43:56.182Z,92.30
2018-04-09T17:46:28.318Z,92.60
2018-04-09T17:48:59.058Z,92.60
2018-04-09T17:51:29.618Z,92.70
2018-04-09T17:54:00.859Z,93.00
2018-04-09T17:56:32.017Z,93.20
2018-04-09T17:59:03.078Z,93.60
2018-04-09T18:01:33.075Z,93.30
2018-04-09T18:04:04.685Z,93.60
2018-04-09T18:06:35.046Z,93.60
2018-04-09T18:09:06.639Z,93.80
2018-04-09T18:11:38.990Z,93.80
2018-04-09T18:14:09.066Z,93.90
2018-04-09T18:16:39.051Z,94.00
2018-04-09T18:19:09.090Z,94.10
2018-04-09T18:21:39.581Z,94.30
2018-04-09T18:24:10.186Z,94.40
2018-04-09T18:26:40.798Z,94.50
2018-04-09T18:29:11.156Z,94.50
2018-04-09T18:31:40.956Z,94.60
2018-04-09T18:34:12.204Z,94.90
2018-04-09T18:36:43.256Z,94.90
2018-04-09T18:39:13.114Z,95.20
2018-04-09T18:41:43.570Z,95.00
2018-04-09T18:44:16.590Z,95.20
2018-04-09T18:46:46.520Z,95.20
2018-04-09T18:49:17.110Z,95.30
2018-04-09T18:51:48.321Z,95.60
2018-04-09T18:54:18.200Z,95.60
2018-04-09T18:56:48.521Z,95.60
2018-04-09T18:59:18.369Z,95.70
2018-04-09T19:01:48.583Z,95.80
2018-04-09T19:04:18.944Z,95.90
2018-04-09T19:06:49.373Z,96.10
2018-04-09T19:09:19.882Z,96.20
2018-04-09T19:11:51.361Z,96.20
2018-04-09T19:14:22.262Z,96.40
2018-04-09T19:19:30.257Z,96.50
2018-04-09T19:22:00.506Z,96.60
2018-04-09T19:24:30.522Z,96.80
2018-04-09T19:27:00.965Z,96.90
2018-04-09T19:29:31.541Z,96.90
2018-04-09T19:32:01.322Z,96.90
2018-04-09T19:34:32.586Z,97.10
2018-04-09T19:37:10.134Z,97.10
2018-04-09T19:39:45.574Z,97.00
2018-04-09T19:47:58.504Z,97.40
2018-04-09T19:50:28.940Z,97.60
2018-04-09T19:52:59.412Z,97.60
2018-04-09T19:55:30.706Z,97.60
2018-04-09T19:58:00.476Z,97.60
2018-04-09T20:00:31.654Z,97.70
2018-04-09T20:03:01.980Z,97.70
2018-04-09T20:05:31.911Z,97.80
2018-04-09T20:08:04.161Z,97.90
2018-04-09T20:10:34.499Z,98.10
2018-04-09T20:13:05.006Z,98.20
2018-04-09T20:15:35.144Z,98.20
2018-04-09T20:18:05.492Z,98.20
2018-04-09T20:20:35.311Z,98.20
2018-04-09T20:23:05.660Z,98.20
2018-04-09T20:25:38.755Z,98.40
2018-04-09T20:28:11.011Z,98.60
2018-04-09T20:30:42.332Z,98.50
2018-04-09T20:33:11.973Z,99.00
2018-04-09T20:35:42.591Z,98.80
2018-04-09T20:38:14.128Z,98.80
2018-04-09T20:40:44.660Z,98.80
2018-04-09T20:43:14.517Z,99.00
2018-04-09T20:45:45.236Z,98.80
2018-04-09T20:48:15.846Z,98.70
2018-04-09T20:50:46.364Z,98.70
2018-04-09T20:53:16.485Z,98.70
2018-04-09T20:55:46.970Z,98.80
2018-04-09T20:58:17.057Z,98.80
2018-04-09T21:00:47.536Z,98.90
2018-04-09T21:03:18.144Z,98.90
2018-04-09T21:05:48.358Z,99.10
2018-04-09T21:08:18.816Z,99.30
2018-04-09T21:10:48.635Z,99.40
2018-04-09T21:13:18.830Z,99.40
2018-04-09T21:15:49.467Z,99.50
2018-04-09T21:18:19.926Z,99.60
2018-04-09T21:20:50.908Z,99.70
2018-04-09T21:23:21.770Z,99.90
2018-04-09T21:25:52.025Z,99.90
2018-04-09T21:28:22.283Z,99.90
2018-04-09T21:30:53.475Z,99.90
2018-04-09T21:33:23.199Z,99.90
2018-04-09T21:35:53.694Z,99.90
2018-04-09T21:38:24.244Z,99.60
2018-04-09T21:40:54.752Z,99.40
2018-04-09T21:43:26.585Z,99.10
2018-04-09T21:45:57.160Z,98.70
2018-04-09T21:48:27.410Z,98.60
2018-04-09T21:50:57.470Z,98.30
2018-04-09T21:53:27.254Z,98.10
2018-04-09T21:55:58.291Z,97.70
2018-04-09T21:58:29.955Z,97.50
2018-04-09T22:01:01.058Z,97.40
2018-04-09T22:03:31.214Z,97.40
2018-04-09T22:06:02.464Z,97.20
2018-04-09T22:08:33.216Z,97.10
2018-04-09T22:11:05.769Z,97.10
2018-04-09T22:13:38.911Z,96.80
2018-04-09T22:16:09.656Z,96.80
2018-04-09T22:18:42.059Z,96.60
2018-04-09T22:21:12.570Z,96.60
2018-04-09T22:23:42.536Z,96.40
2018-04-09T22:26:13.046Z,96.30
2018-04-09T22:28:43.575Z,96.10
2018-04-09T22:31:14.537Z,96.00
2018-04-09T22:33:44.379Z,96.00
2018-04-09T22:36:14.535Z,96.00
2018-04-09T22:38:45.646Z,95.40
2018-04-09T22:41:15.677Z,95.40
2018-04-09T22:43:45.915Z,95.40
2018-04-09T22:46:16.988Z,95.40
2018-04-09T22:48:47.436Z,95.40
2018-04-09T22:51:19.930Z,95.60
2018-04-09T22:53:49.762Z,95.70
2018-04-09T22:56:20.047Z,95.80
2018-04-09T22:58:50.679Z,96.00
2018-04-09T23:01:21.027Z,96.10
2018-04-09T23:03:50.755Z,96.20
2018-04-09T23:06:21.213Z,96.40
2018-04-09T23:08:53.630Z,96.60
2018-04-09T23:11:23.411Z,96.80
2018-04-09T23:13:53.748Z,96.80
2018-04-09T23:16:23.560Z,96.90
2018-04-09T23:18:54.077Z,97.00
2018-04-09T23:21:26.853Z,97.10
2018-04-09T23:23:59.390Z,97.20
2018-04-09T23:26:29.828Z,97.30
2018-04-09T23:29:00.344Z,97.40
2018-04-09T23:31:30.735Z,97.40
2018-04-09T23:34:01.045Z,97.40
2018-04-09T23:36:31.631Z,97.40
2018-04-09T23:39:02.173Z,97.40
2018-04-09T23:41:33.235Z,97.50
2018-04-09T23:44:03.839Z,97.40
2018-04-09T23:46:35.109Z,97.60
2018-04-09T23:49:05.928Z,97.60
2018-04-09T23:51:37.063Z,97.70
2018-04-09T23:54:10.142Z,97.70
2018-04-09T23:56:40.386Z,97.70
2018-04-09T23:59:10.182Z,97.80
